createdAt,value
2022-12-18T00:03:17.675Z,15.53
2022-12-18T00:18:20.689Z,14.67
2022-12-18T00:33:22.696Z,13.70
2022-12-18T00:48:24.845Z,14.80
2022-12-18T01:03:26.627Z,12.47
2022-12-18T01:18:28.404Z,11.33
2022-12-18T01:33:30.163Z,10.70
2022-12-18T01:48:32.439Z,9.77
2022-12-18T02:03:34.399Z,7.93
2022-12-18T02:18:45.395Z,6.73
2022-12-18T02:33:49.260Z,5.23
2022-12-18T02:48:53.491Z,4.30
2022-12-18T03:04:05.631Z,4.03
2022-12-18T03:19:13.360Z,4.87
2022-12-18T03:34:22.859Z,3.80
2022-12-18T03:49:31.194Z,4.53
2022-12-18T04:04:34.854Z,4.67
2022-12-18T04:19:36.640Z,4.83
2022-12-18T04:34:38.456Z,5.90
2022-12-18T04:49:40.371Z,5.90
2022-12-18T05:04:42.164Z,6.20
2022-12-18T05:19:44.822Z,5.63
2022-12-18T05:34:46.615Z,5.13
2022-12-18T05:49:48.889Z,5.50
2022-12-18T06:04:50.701Z,5.23
2022-12-18T06:19:52.483Z,5.27
2022-12-18T06:34:55.034Z,6.13
2022-12-18T06:49:58.465Z,7.23
2022-12-18T07:05:00.378Z,4.90
2022-12-18T10:38:55.108Z,5.90
2022-12-18T10:54:06.259Z,6.77
2022-12-18T11:09:22.281Z,7.20
2022-12-18T11:24:35.493Z,8.30
2022-12-18T11:39:55.187Z,7.53
2022-12-18T11:55:01.471Z,7.67
2022-12-18T12:10:13.370Z,7.10
2022-12-18T12:25:15.105Z,7.33
2022-12-18T12:40:50.141Z,5.63
2022-12-18T12:55:44.482Z,5.83
2022-12-18T13:10:47.418Z,7.27
2022-12-18T13:25:53.824Z,6.63
2022-12-18T13:55:58.690Z,6.03
2022-12-18T14:11:02.592Z,5.30
2022-12-18T14:26:22.681Z,6.23
2022-12-18T14:41:26.655Z,6.53
2022-12-18T14:56:34.921Z,6.93
2022-12-18T15:11:46.289Z,6.73
2022-12-18T15:26:49.017Z,10.10
2022-12-18T15:42:09.758Z,8.60
2022-12-18T15:57:24.316Z,7.50
2022-12-18T16:12:26.749Z,10.93
2022-12-18T19:38:28.125Z,7.17
2022-12-18T19:53:29.923Z,5.00
2022-12-18T20:08:39.847Z,3.83
2022-12-18T20:23:42.386Z,6.03
2022-12-18T20:38:45.174Z,4.97
2022-12-18T20:53:48.225Z,4.43
2022-12-18T21:08:50.422Z,4.27
2022-12-18T21:23:52.242Z,4.40
2022-12-18T21:38:55.854Z,4.83
2022-12-18T21:53:58.917Z,3.93
2022-12-18T22:09:00.714Z,4.90
2022-12-18T22:24:05.377Z,4.33
2022-12-18T22:39:12.682Z,3.63
2022-12-18T22:54:15.143Z,5.03
2022-12-18T23:09:20.187Z,4.93
2022-12-18T23:24:21.954Z,4.17
2022-12-18T23:39:29.761Z,4.57
2022-12-18T23:54:33.445Z,3.83
